sensor_id;sensor_type;location;lat;lon;timestamp;pressure;altitude;pressure_sealevel;temperature;humidity
36304;BME280;22335;49.800;8.596;2024-03-02T00:02:39;99271.81;;;9.93;56.36
36304;BME280;22335;49.800;8.596;2024-03-02T00:09:25;99339.66;;;10.36;56.43
36304;BME280;22335;49.800;8.596;2024-03-02T00:16:08;99325.63;;;10.29;56.25
36304;BME280;22335;49.800;8.596;2024-03-02T00:22:58;99318.66;;;10.23;56.36
36304;BME280;22335;49.800;8.596;2024-03-02T00:29:47;99314.09;;;10.19;56.51
36304;BME280;22335;49.800;8.596;2024-03-02T00:36:31;99246.22;;;9.67;56.94
36304;BME280;22335;49.800;8.596;2024-03-02T00:43:41;99321.22;;;10.06;56.56
36304;BME280;22335;49.800;8.596;2024-03-02T00:50:27;99316.28;;;10.08;56.97
36304;BME280;22335;49.800;8.596;2024-03-02T00:57:11;99318.50;;;10.06;56.57
36304;BME280;22335;49.800;8.596;2024-03-02T01:03:54;99322.38;;;10.05;56.56
36304;BME280;22335;49.800;8.596;2024-03-02T01:10:39;99328.25;;;9.98;56.77
36304;BME280;22335;49.800;8.596;2024-03-02T01:17:23;99333.41;;;10.00;56.46
36304;BME280;22335;49.800;8.596;2024-03-02T01:24:06;99338.81;;;9.91;57.17
36304;BME280;22335;49.800;8.596;2024-03-02T01:30:51;99335.56;;;9.89;56.98
36304;BME280;22335;49.800;8.596;2024-03-02T01:37:35;99331.63;;;9.81;57.12
36304;BME280;22335;49.800;8.596;2024-03-02T01:44:18;99322.06;;;9.70;56.84
36304;BME280;22335;49.800;8.596;2024-03-02T01:51:03;99313.47;;;9.63;56.86
36304;BME280;22335;49.800;8.596;2024-03-02T01:57:48;99298.91;;;9.54;56.99
36304;BME280;22335;49.800;8.596;2024-03-02T02:04:33;99294.28;;;9.40;57.01
36304;BME280;22335;49.800;8.596;2024-03-02T02:11:18;99280.06;;;9.30;57.66
36304;BME280;22335;49.800;8.596;2024-03-02T02:18:02;99292.78;;;9.34;57.20
36304;BME280;22335;49.800;8.596;2024-03-02T02:24:48;99275.00;;;9.37;57.12
36304;BME280;22335;49.800;8.596;2024-03-02T02:31:37;99269.63;;;9.32;57.33
36304;BME280;22335;49.800;8.596;2024-03-02T02:38:21;99236.31;;;9.07;57.30
36304;BME280;22335;49.800;8.596;2024-03-02T02:45:06;99240.50;;;9.05;57.29
36304;BME280;22335;49.800;8.596;2024-03-02T02:51:50;99272.69;;;9.30;57.41
36304;BME280;22335;49.800;8.596;2024-03-02T02:58:35;99255.09;;;9.22;56.93
36304;BME280;22335;49.800;8.596;2024-03-02T03:05:20;99252.78;;;9.16;57.40
36304;BME280;22335;49.800;8.596;2024-03-02T03:12:04;99257.44;;;9.15;57.41
36304;BME280;22335;49.800;8.596;2024-03-02T03:18:47;99263.22;;;9.14;57.60
36304;BME280;22335;49.800;8.596;2024-03-02T03:25:34;99241.50;;;9.09;57.75
36304;BME280;22335;49.800;8.596;2024-03-02T03:32:18;99246.75;;;9.05;57.15
36304;BME280;22335;49.800;8.596;2024-03-02T03:39:01;99247.16;;;8.98;56.78
36304;BME280;22335;49.800;8.596;2024-03-02T04:00:50;99247.84;;;8.90;56.53
36304;BME280;22335;49.800;8.596;2024-03-02T04:07:35;99220.06;;;8.47;57.49
36304;BME280;22335;49.800;8.596;2024-03-02T04:14:21;99250.78;;;8.66;57.46
36304;BME280;22335;49.800;8.596;2024-03-02T04:21:06;99247.25;;;8.66;57.40
36304;BME280;22335;49.800;8.596;2024-03-02T04:27:50;99230.28;;;8.55;56.98
36304;BME280;22335;49.800;8.596;2024-03-02T04:34:33;99249.28;;;8.74;57.74
36304;BME280;22335;49.800;8.596;2024-03-02T04:41:18;99245.94;;;8.77;57.99
36304;BME280;22335;49.800;8.596;2024-03-02T04:48:02;99258.78;;;8.76;57.70
36304;BME280;22335;49.800;8.596;2024-03-02T04:54:46;99260.78;;;8.71;57.49
36304;BME280;22335;49.800;8.596;2024-03-02T05:01:48;99264.72;;;8.65;57.67
36304;BME280;22335;49.800;8.596;2024-03-02T05:08:32;99271.06;;;8.60;57.64
36304;BME280;22335;49.800;8.596;2024-03-02T05:15:15;98497.03;;;3.61;56.98
36304;BME280;22335;49.800;8.596;2024-03-02T05:22:00;99285.00;;;8.59;57.38
36304;BME280;22335;49.800;8.596;2024-03-02T05:28:44;99296.19;;;8.57;57.49
36304;BME280;22335;49.800;8.596;2024-03-02T05:35:28;99236.13;;;8.16;57.10
36304;BME280;22335;49.800;8.596;2024-03-02T05:42:13;99307.81;;;8.30;57.45
36304;BME280;22335;49.800;8.596;2024-03-02T05:48:58;99312.06;;;8.17;57.22
36304;BME280;22335;49.800;8.596;2024-03-02T05:55:42;99314.75;;;8.03;57.81
36304;BME280;22335;49.800;8.596;2024-03-02T06:02:27;99314.91;;;7.74;58.39
36304;BME280;22335;49.800;8.596;2024-03-02T06:09:11;99326.44;;;7.66;58.19
36304;BME280;22335;49.800;8.596;2024-03-02T06:15:54;99326.16;;;7.68;58.69
36304;BME280;22335;49.800;8.596;2024-03-02T06:22:39;99327.94;;;7.77;58.84
36304;BME280;22335;49.800;8.596;2024-03-02T06:29:23;99296.34;;;7.57;57.85
36304;BME280;22335;49.800;8.596;2024-03-02T06:36:06;99341.31;;;7.93;57.82
36304;BME280;22335;49.800;8.596;2024-03-02T06:42:52;99339.47;;;7.88;58.37
36304;BME280;22335;49.800;8.596;2024-03-02T06:49:36;99342.63;;;7.76;58.82
36304;BME280;22335;49.800;8.596;2024-03-02T06:56:19;99348.88;;;7.77;58.83
36304;BME280;22335;49.800;8.596;2024-03-02T07:03:04;99347.00;;;7.77;58.27
36304;BME280;22335;49.800;8.596;2024-03-02T07:09:48;99354.03;;;7.78;58.25
36304;BME280;22335;49.800;8.596;2024-03-02T07:16:31;99348.97;;;7.72;59.03
36304;BME280;22335;49.800;8.596;2024-03-02T07:23:17;99366.66;;;7.93;59.07
36304;BME280;22335;49.800;8.596;2024-03-02T07:30:03;99367.81;;;8.06;58.70
36304;BME280;22335;49.800;8.596;2024-03-02T07:36:46;99368.03;;;8.09;58.73
36304;BME280;22335;49.800;8.596;2024-03-02T07:43:31;99367.81;;;8.25;59.12
36304;BME280;22335;49.800;8.596;2024-03-02T07:50:15;99310.69;;;8.20;58.84
36304;BME280;22335;49.800;8.596;2024-03-02T07:56:59;99377.53;;;8.96;58.76
36304;BME280;22335;49.800;8.596;2024-03-02T08:03:46;99391.31;;;9.19;59.16
36304;BME280;22335;49.800;8.596;2024-03-02T08:10:31;99390.13;;;9.39;59.24
36304;BME280;22335;49.800;8.596;2024-03-02T08:17:15;99395.47;;;9.58;59.43
36304;BME280;22335;49.800;8.596;2024-03-02T08:24:00;99390.81;;;9.72;59.74
36304;BME280;22335;49.800;8.596;2024-03-02T08:30:44;99396.34;;;9.95;59.65
36304;BME280;22335;49.800;8.596;2024-03-02T08:37:28;99397.53;;;10.16;59.62
36304;BME280;22335;49.800;8.596;2024-03-02T08:44:13;99389.00;;;10.31;59.67
36304;BME280;22335;49.800;8.596;2024-03-02T08:50:57;99395.72;;;10.48;59.69
36304;BME280;22335;49.800;8.596;2024-03-02T08:57:40;99392.78;;;10.67;59.50
36304;BME280;22335;49.800;8.596;2024-03-02T09:04:27;99390.84;;;10.90;59.33
36304;BME280;22335;49.800;8.596;2024-03-02T09:11:12;99385.69;;;11.19;59.26
36304;BME280;22335;49.800;8.596;2024-03-02T09:17:56;99385.31;;;11.43;59.13
36304;BME280;22335;49.800;8.596;2024-03-02T09:24:41;99375.84;;;11.58;58.60
36304;BME280;22335;49.800;8.596;2024-03-02T09:31:24;99375.06;;;11.66;58.62
36304;BME280;22335;49.800;8.596;2024-03-02T09:38:08;99372.66;;;11.73;58.62
36304;BME280;22335;49.800;8.596;2024-03-02T09:44:53;99373.19;;;11.84;58.59
36304;BME280;22335;49.800;8.596;2024-03-02T09:51:36;99362.94;;;11.98;58.17
36304;BME280;22335;49.800;8.596;2024-03-02T09:58:20;99356.66;;;12.15;57.79
36304;BME280;22335;49.800;8.596;2024-03-02T10:05:05;99346.78;;;12.32;57.32
36304;BME280;22335;49.800;8.596;2024-03-02T10:11:49;99345.34;;;12.52;57.42
36304;BME280;22335;49.800;8.596;2024-03-02T10:18:33;99340.44;;;12.75;57.03
36304;BME280;22335;49.800;8.596;2024-03-02T10:25:29;99332.56;;;13.29;56.54
36304;BME280;22335;49.800;8.596;2024-03-02T10:32:17;99330.03;;;13.74;55.54
36304;BME280;22335;49.800;8.596;2024-03-02T10:39:02;99320.81;;;14.00;55.00
36304;BME280;22335;49.800;8.596;2024-03-02T10:45:49;99317.50;;;14.06;54.78
36304;BME280;22335;49.800;8.596;2024-03-02T10:52:33;99310.81;;;13.95;54.86
36304;BME280;22335;49.800;8.596;2024-03-02T10:59:21;99280.91;;;13.73;54.57
36304;BME280;22335;49.800;8.596;2024-03-02T11:06:11;99292.56;;;13.91;54.34
36304;BME280;22335;49.800;8.596;2024-03-02T11:12:59;99302.13;;;14.05;54.27
36304;BME280;22335;49.800;8.596;2024-03-02T11:19:46;99296.97;;;14.25;54.53
36304;BME280;22335;49.800;8.596;2024-03-02T11:26:38;99287.41;;;14.43;54.03
36304;BME280;22335;49.800;8.596;2024-03-02T11:42:16;99261.38;;;14.86;54.30
36304;BME280;22335;49.800;8.596;2024-03-02T11:49:00;99255.78;;;15.07;53.23
36304;BME280;22335;49.800;8.596;2024-03-02T11:55:44;99235.81;;;15.22;52.32
36304;BME280;22335;49.800;8.596;2024-03-02T12:02:30;99231.06;;;15.48;52.38
36304;BME280;22335;49.800;8.596;2024-03-02T12:09:13;99220.56;;;15.65;51.30
36304;BME280;22335;49.800;8.596;2024-03-02T12:15:57;99203.94;;;15.74;51.72
36304;BME280;22335;49.800;8.596;2024-03-02T12:22:42;99199.16;;;15.87;51.65
36304;BME280;22335;49.800;8.596;2024-03-02T12:29:27;99194.94;;;16.05;51.33
36304;BME280;22335;49.800;8.596;2024-03-02T12:36:10;99192.22;;;16.21;50.63
36304;BME280;22335;49.800;8.596;2024-03-02T12:42:56;99120.88;;;15.91;50.20
36304;BME280;22335;49.800;8.596;2024-03-02T12:49:40;99171.59;;;16.47;49.68
36304;BME280;22335;49.800;8.596;2024-03-02T12:56:24;99156.34;;;16.69;48.98
36304;BME280;22335;49.800;8.596;2024-03-02T13:03:09;99163.50;;;16.86;48.60
36304;BME280;22335;49.800;8.596;2024-03-02T13:09:55;99144.41;;;16.96;48.37
36304;BME280;22335;49.800;8.596;2024-03-02T13:16:39;99156.75;;;17.18;48.04
36304;BME280;22335;49.800;8.596;2024-03-02T13:23:26;99147.84;;;17.25;47.30
36304;BME280;22335;49.800;8.596;2024-03-02T13:30:12;99133.88;;;17.37;47.12
36304;BME280;22335;49.800;8.596;2024-03-02T13:36:55;99127.34;;;17.45;46.85
36304;BME280;22335;49.800;8.596;2024-03-02T13:43:40;99104.44;;;17.25;46.05
36304;BME280;22335;49.800;8.596;2024-03-02T13:50:26;99060.13;;;17.02;45.85
36304;BME280;22335;49.800;8.596;2024-03-02T13:57:11;99114.69;;;17.44;45.75
36304;BME280;22335;49.800;8.596;2024-03-02T14:03:56;99110.09;;;17.33;45.37
36304;BME280;22335;49.800;8.596;2024-03-02T14:10:40;99056.56;;;17.02;45.42
36304;BME280;22335;49.800;8.596;2024-03-02T14:17:24;99111.47;;;17.42;45.26
36304;BME280;22335;49.800;8.596;2024-03-02T14:24:09;99073.56;;;17.43;44.91
36304;BME280;22335;49.800;8.596;2024-03-02T14:30:52;99084.91;;;17.57;44.94
36304;BME280;22335;49.800;8.596;2024-03-02T14:37:36;99086.50;;;17.58;44.58
36304;BME280;22335;49.800;8.596;2024-03-02T14:44:21;99081.56;;;17.67;44.36
36304;BME280;22335;49.800;8.596;2024-03-02T14:51:04;99076.59;;;17.77;44.28
36304;BME280;22335;49.800;8.596;2024-03-02T14:57:48;99073.97;;;17.84;44.05
36304;BME280;22335;49.800;8.596;2024-03-02T15:04:33;99052.34;;;17.89;44.38
36304;BME280;22335;49.800;8.596;2024-03-02T15:11:16;99047.53;;;18.06;44.73
36304;BME280;22335;49.800;8.596;2024-03-02T15:18:00;99046.16;;;18.19;44.09
36304;BME280;22335;49.800;8.596;2024-03-02T15:24:45;99036.66;;;18.20;43.63
36304;BME280;22335;49.800;8.596;2024-03-02T15:31:29;99033.16;;;18.23;43.47
36304;BME280;22335;49.800;8.596;2024-03-02T15:38:12;99028.13;;;18.29;43.28
36304;BME280;22335;49.800;8.596;2024-03-02T15:45:00;99023.81;;;18.31;42.92
36304;BME280;22335;49.800;8.596;2024-03-02T15:51:43;99030.09;;;18.28;43.00
36304;BME280;22335;49.800;8.596;2024-03-02T15:58:27;99026.09;;;18.26;42.84
36304;BME280;22335;49.800;8.596;2024-03-02T16:05:12;98942.16;;;17.68;43.00
36304;BME280;22335;49.800;8.596;2024-03-02T16:11:55;99029.16;;;18.20;42.77
36304;BME280;22335;49.800;8.596;2024-03-02T16:18:38;99030.97;;;18.09;43.08
36304;BME280;22335;49.800;8.596;2024-03-02T16:32:54;99012.53;;;17.94;43.41
36304;BME280;22335;49.800;8.596;2024-03-02T16:39:37;99030.91;;;17.83;43.44
36304;BME280;22335;49.800;8.596;2024-03-02T16:46:22;99028.47;;;17.78;43.46
36304;BME280;22335;49.800;8.596;2024-03-02T16:53:06;98963.63;;;17.33;43.28
36304;BME280;22335;49.800;8.596;2024-03-02T16:59:49;99021.16;;;17.69;43.47
36304;BME280;22335;49.800;8.596;2024-03-02T17:06:34;99031.78;;;17.67;43.43
36304;BME280;22335;49.800;8.596;2024-03-02T17:13:18;99026.47;;;17.59;43.85
36304;BME280;22335;49.800;8.596;2024-03-02T17:20:02;99029.41;;;17.46;43.98
36304;BME280;22335;49.800;8.596;2024-03-02T17:26:51;99019.03;;;17.40;43.97
36304;BME280;22335;49.800;8.596;2024-03-02T17:33:35;99026.69;;;17.27;44.07
36304;BME280;22335;49.800;8.596;2024-03-02T17:40:19;99022.91;;;17.16;44.11
36304;BME280;22335;49.800;8.596;2024-03-02T17:47:04;99017.16;;;17.05;44.02
36304;BME280;22335;49.800;8.596;2024-03-02T17:53:48;99018.53;;;16.95;44.23
36304;BME280;22335;49.800;8.596;2024-03-02T18:08:56;98997.06;;;16.53;44.52
36304;BME280;22335;49.800;8.596;2024-03-02T18:15:39;98952.59;;;16.04;44.69
36304;BME280;22335;49.800;8.596;2024-03-02T18:22:23;98981.16;;;16.11;44.78
36304;BME280;22335;49.800;8.596;2024-03-02T18:29:08;98975.56;;;15.92;44.79
36304;BME280;22335;49.800;8.596;2024-03-02T18:35:51;98973.25;;;15.94;44.79
36304;BME280;22335;49.800;8.596;2024-03-02T18:42:36;98968.81;;;15.89;44.66
36304;BME280;22335;49.800;8.596;2024-03-02T18:49:21;98976.38;;;15.93;44.48
36304;BME280;22335;49.800;8.596;2024-03-02T18:56:05;98981.34;;;16.03;44.49
36304;BME280;22335;49.800;8.596;2024-03-02T19:02:49;98971.28;;;16.10;44.64
36304;BME280;22335;49.800;8.596;2024-03-02T19:09:35;98966.00;;;16.21;44.66
36304;BME280;22335;49.800;8.596;2024-03-02T19:16:18;98957.56;;;16.14;45.01
36304;BME280;22335;49.800;8.596;2024-03-02T19:23:03;98958.94;;;16.04;45.34
36304;BME280;22335;49.800;8.596;2024-03-02T19:29:48;98954.47;;;16.00;45.31
36304;BME280;22335;49.800;8.596;2024-03-02T19:36:31;98961.41;;;15.94;45.40
36304;BME280;22335;49.800;8.596;2024-03-02T19:43:15;98984.28;;;15.94;45.61
36304;BME280;22335;49.800;8.596;2024-03-02T19:50:01;98998.97;;;15.98;45.69
36304;BME280;22335;49.800;8.596;2024-03-02T19:56:46;98994.59;;;15.97;45.84
36304;BME280;22335;49.800;8.596;2024-03-02T20:03:29;98972.28;;;15.86;45.75
36304;BME280;22335;49.800;8.596;2024-03-02T20:10:14;99007.41;;;15.89;46.25
36304;BME280;22335;49.800;8.596;2024-03-02T20:16:58;99004.91;;;15.68;46.60
36304;BME280;22335;49.800;8.596;2024-03-02T20:23:41;99004.00;;;15.64;46.33
36304;BME280;22335;49.800;8.596;2024-03-02T20:30:26;98988.38;;;15.68;46.18
36304;BME280;22335;49.800;8.596;2024-03-02T20:37:10;98963.44;;;15.65;46.24
36304;BME280;22335;49.800;8.596;2024-03-02T20:43:53;98962.19;;;15.62;46.34
36304;BME280;22335;49.800;8.596;2024-03-02T20:50:38;98939.13;;;15.39;46.55
36304;BME280;22335;49.800;8.596;2024-03-02T20:57:22;98942.00;;;15.42;46.60
36304;BME280;22335;49.800;8.596;2024-03-02T21:04:05;98939.22;;;15.27;47.07
36304;BME280;22335;49.800;8.596;2024-03-02T21:10:56;98915.75;;;15.17;47.09
36304;BME280;22335;49.800;8.596;2024-03-02T21:17:40;98920.81;;;15.15;47.17
36304;BME280;22335;49.800;8.596;2024-03-02T21:24:23;98918.06;;;15.15;47.25
36304;BME280;22335;49.800;8.596;2024-03-02T21:31:14;98923.22;;;15.16;47.25
36304;BME280;22335;49.800;8.596;2024-03-02T21:37:58;98927.06;;;15.28;47.00
36304;BME280;22335;49.800;8.596;2024-03-02T21:44:44;98938.94;;;15.16;47.24
36304;BME280;22335;49.800;8.596;2024-03-02T21:51:29;98955.53;;;15.04;47.40
36304;BME280;22335;49.800;8.596;2024-03-02T21:58:12;98953.47;;;15.01;47.79
36304;BME280;22335;49.800;8.596;2024-03-02T22:04:56;98962.97;;;15.03;47.69
36304;BME280;22335;49.800;8.596;2024-03-02T22:11:41;98967.03;;;14.93;48.11
36304;BME280;22335;49.800;8.596;2024-03-02T22:18:25;98959.38;;;14.87;47.94
36304;BME280;22335;49.800;8.596;2024-03-02T22:25:09;98946.38;;;14.71;48.35
36304;BME280;22335;49.800;8.596;2024-03-02T22:31:54;98956.63;;;14.59;48.77
36304;BME280;22335;49.800;8.596;2024-03-02T22:38:37;98946.06;;;14.36;49.15
36304;BME280;22335;49.800;8.596;2024-03-02T22:45:21;98946.56;;;14.14;49.68
36304;BME280;22335;49.800;8.596;2024-03-02T22:52:06;98893.91;;;13.50;50.16
36304;BME280;22335;49.800;8.596;2024-03-02T22:58:49;98966.97;;;13.76;50.09
36304;BME280;22335;49.800;8.596;2024-03-02T23:05:33;98956.16;;;13.58;50.54
36304;BME280;22335;49.800;8.596;2024-03-02T23:12:18;98962.56;;;13.38;50.84
36304;BME280;22335;49.800;8.596;2024-03-02T23:19:01;98960.44;;;13.23;51.64
36304;BME280;22335;49.800;8.596;2024-03-02T23:25:45;98964.25;;;13.09;51.77
36304;BME280;22335;49.800;8.596;2024-03-02T23:32:30;98945.59;;;13.03;51.92
36304;BME280;22335;49.800;8.596;2024-03-02T23:39:14;98950.84;;;12.96;52.00
36304;BME280;22335;49.800;8.596;2024-03-02T23:46:19;98870.47;;;12.41;52.20
36304;BME280;22335;49.800;8.596;2024-03-02T23:53:04;98932.19;;;12.89;52.57
36304;BME280;22335;49.800;8.596;2024-03-02T23:59:47;98929.84;;;12.79;52.82
